sensor_id;sensor_type;location;lat;lon;timestamp;P1;durP1;ratioP1;P2;durP2;ratioP2
80211;SDS011;69530;37.974;23.708;2023-05-10T00:01:23;5.60;;;3.50;;
80211;SDS011;69530;37.974;23.708;2023-05-10T00:03:49;5.60;;;3.10;;
80211;SDS011;69530;37.974;23.708;2023-05-10T00:06:14;4.65;;;2.92;;
80211;SDS011;69530;37.974;23.708;2023-05-10T00:08:40;5.85;;;3.45;;
80211;SDS011;69530;37.974;23.708;2023-05-10T00:11:06;8.30;;;3.42;;
80211;SDS011;69530;37.974;23.708;2023-05-10T00:13:32;4.72;;;3.28;;
80211;SDS011;69530;37.974;23.708;2023-05-10T00:15:58;7.90;;;3.80;;
80211;SDS011;69530;37.974;23.708;2023-05-10T00:18:23;5.38;;;3.28;;
80211;SDS011;69530;37.974;23.708;2023-05-10T00:20:49;4.80;;;3.53;;
80211;SDS011;69530;37.974;23.708;2023-05-10T00:23:15;6.10;;;3.50;;
80211;SDS011;69530;37.974;23.708;2023-05-10T00:25:41;7.45;;;3.63;;
80211;SDS011;69530;37.974;23.708;2023-05-10T00:28:06;9.15;;;4.00;;
80211;SDS011;69530;37.974;23.708;2023-05-10T00:30:32;7.70;;;3.95;;
80211;SDS011;69530;37.974;23.708;2023-05-10T00:32:58;5.05;;;3.60;;
80211;SDS011;69530;37.974;23.708;2023-05-10T00:35:23;5.20;;;3.13;;
80211;SDS011;69530;37.974;23.708;2023-05-10T00:37:49;6.80;;;3.63;;
80211;SDS011;69530;37.974;23.708;2023-05-10T00:40:15;5.55;;;3.35;;
80211;SDS011;69530;37.974;23.708;2023-05-10T00:42:41;6.55;;;3.42;;
80211;SDS011;69530;37.974;23.708;2023-05-10T00:45:06;6.32;;;3.40;;
80211;SDS011;69530;37.974;23.708;2023-05-10T00:47:33;6.38;;;3.65;;
80211;SDS011;69530;37.974;23.708;2023-05-10T00:49:59;7.55;;;3.28;;
80211;SDS011;69530;37.974;23.708;2023-05-10T00:52:26;7.00;;;3.72;;
80211;SDS011;69530;37.974;23.708;2023-05-10T00:54:52;7.75;;;3.42;;
80211;SDS011;69530;37.974;23.708;2023-05-10T00:57:19;6.47;;;3.50;;
80211;SDS011;69530;37.974;23.708;2023-05-10T00:59:45;8.20;;;3.35;;
80211;SDS011;69530;37.974;23.708;2023-05-10T01:02:11;5.90;;;3.45;;
80211;SDS011;69530;37.974;23.708;2023-05-10T01:04:38;5.97;;;3.40;;
80211;SDS011;69530;37.974;23.708;2023-05-10T01:07:04;5.13;;;2.78;;
80211;SDS011;69530;37.974;23.708;2023-05-10T01:09:30;7.15;;;3.17;;
80211;SDS011;69530;37.974;23.708;2023-05-10T01:11:57;6.15;;;3.08;;
80211;SDS011;69530;37.974;23.708;2023-05-10T01:14:23;6.55;;;3.30;;
80211;SDS011;69530;37.974;23.708;2023-05-10T01:16:50;5.57;;;3.17;;
80211;SDS011;69530;37.974;23.708;2023-05-10T01:19:19;6.30;;;3.20;;
80211;SDS011;69530;37.974;23.708;2023-05-10T01:30:10;4.70;;;2.55;;
80211;SDS011;69530;37.974;23.708;2023-05-10T01:33:01;6.60;;;2.72;;
80211;SDS011;69530;37.974;23.708;2023-05-10T01:38:41;7.40;;;2.60;;
80211;SDS011;69530;37.974;23.708;2023-05-10T01:43:55;5.55;;;2.90;;
80211;SDS011;69530;37.974;23.708;2023-05-10T01:46:31;5.95;;;2.53;;
80211;SDS011;69530;37.974;23.708;2023-05-10T01:49:00;5.60;;;2.63;;
80211;SDS011;69530;37.974;23.708;2023-05-10T01:51:33;8.68;;;3.13;;
80211;SDS011;69530;37.974;23.708;2023-05-10T01:54:03;5.78;;;2.47;;
80211;SDS011;69530;37.974;23.708;2023-05-10T01:56:32;6.45;;;2.70;;
80211;SDS011;69530;37.974;23.708;2023-05-10T01:58:59;7.75;;;2.47;;
80211;SDS011;69530;37.974;23.708;2023-05-10T02:01:29;4.47;;;2.40;;
80211;SDS011;69530;37.974;23.708;2023-05-10T02:03:56;6.82;;;2.40;;
80211;SDS011;69530;37.974;23.708;2023-05-10T02:06:24;4.38;;;2.35;;
80211;SDS011;69530;37.974;23.708;2023-05-10T02:08:52;5.90;;;2.35;;
80211;SDS011;69530;37.974;23.708;2023-05-10T02:11:18;5.18;;;2.28;;
80211;SDS011;69530;37.974;23.708;2023-05-10T02:13:46;6.13;;;2.35;;
80211;SDS011;69530;37.974;23.708;2023-05-10T02:16:14;5.70;;;2.08;;
80211;SDS011;69530;37.974;23.708;2023-05-10T02:18:42;5.47;;;2.45;;
80211;SDS011;69530;37.974;23.708;2023-05-10T02:21:09;6.25;;;2.55;;
80211;SDS011;69530;37.974;23.708;2023-05-10T02:23:35;6.68;;;2.28;;
80211;SDS011;69530;37.974;23.708;2023-05-10T02:26:02;4.78;;;2.38;;
80211;SDS011;69530;37.974;23.708;2023-05-10T02:28:30;5.80;;;2.10;;
80211;SDS011;69530;37.974;23.708;2023-05-10T02:30:57;6.13;;;2.10;;
80211;SDS011;69530;37.974;23.708;2023-05-10T02:33:23;5.40;;;2.20;;
80211;SDS011;69530;37.974;23.708;2023-05-10T02:35:50;5.70;;;2.65;;
80211;SDS011;69530;37.974;23.708;2023-05-10T02:38:17;4.63;;;1.73;;
80211;SDS011;69530;37.974;23.708;2023-05-10T02:40:44;5.00;;;2.22;;
80211;SDS011;69530;37.974;23.708;2023-05-10T02:43:13;6.53;;;2.50;;
80211;SDS011;69530;37.974;23.708;2023-05-10T02:45:40;4.88;;;2.00;;
80211;SDS011;69530;37.974;23.708;2023-05-10T02:48:08;3.67;;;1.90;;
80211;SDS011;69530;37.974;23.708;2023-05-10T02:50:33;3.80;;;1.88;;
80211;SDS011;69530;37.974;23.708;2023-05-10T02:53:11;4.50;;;1.90;;
80211;SDS011;69530;37.974;23.708;2023-05-10T02:55:42;5.40;;;2.22;;
80211;SDS011;69530;37.974;23.708;2023-05-10T02:58:10;7.82;;;2.30;;
80211;SDS011;69530;37.974;23.708;2023-05-10T03:00:36;4.78;;;1.95;;
80211;SDS011;69530;37.974;23.708;2023-05-10T03:03:02;5.25;;;1.70;;
80211;SDS011;69530;37.974;23.708;2023-05-10T03:05:27;3.55;;;2.15;;
80211;SDS011;69530;37.974;23.708;2023-05-10T03:07:53;7.28;;;2.63;;
80211;SDS011;69530;37.974;23.708;2023-05-10T03:10:19;3.47;;;1.75;;
80211;SDS011;69530;37.974;23.708;2023-05-10T03:13:12;5.23;;;2.20;;
80211;SDS011;69530;37.974;23.708;2023-05-10T03:21:13;4.40;;;1.83;;
80211;SDS011;69530;37.974;23.708;2023-05-10T03:23:46;4.82;;;1.83;;
80211;SDS011;69530;37.974;23.708;2023-05-10T03:26:26;5.70;;;2.03;;
80211;SDS011;69530;37.974;23.708;2023-05-10T03:28:52;5.63;;;1.85;;
80211;SDS011;69530;37.974;23.708;2023-05-10T03:31:18;5.32;;;1.92;;
80211;SDS011;69530;37.974;23.708;2023-05-10T03:33:47;4.93;;;2.03;;
80211;SDS011;69530;37.974;23.708;2023-05-10T03:36:14;4.00;;;2.17;;
80211;SDS011;69530;37.974;23.708;2023-05-10T03:38:40;5.57;;;1.80;;
80211;SDS011;69530;37.974;23.708;2023-05-10T03:41:05;3.95;;;1.73;;
80211;SDS011;69530;37.974;23.708;2023-05-10T03:43:31;5.00;;;2.40;;
80211;SDS011;69530;37.974;23.708;2023-05-10T03:45:57;4.60;;;1.85;;
80211;SDS011;69530;37.974;23.708;2023-05-10T03:48:22;4.72;;;1.58;;
80211;SDS011;69530;37.974;23.708;2023-05-10T03:50:48;5.25;;;2.00;;
80211;SDS011;69530;37.974;23.708;2023-05-10T03:53:16;5.65;;;1.73;;
80211;SDS011;69530;37.974;23.708;2023-05-10T03:55:42;4.57;;;1.80;;
80211;SDS011;69530;37.974;23.708;2023-05-10T03:58:10;6.00;;;1.92;;
80211;SDS011;69530;37.974;23.708;2023-05-10T04:00:36;4.97;;;2.10;;
80211;SDS011;69530;37.974;23.708;2023-05-10T04:03:02;4.22;;;1.80;;
80211;SDS011;69530;37.974;23.708;2023-05-10T04:05:28;4.43;;;1.80;;
80211;SDS011;69530;37.974;23.708;2023-05-10T04:07:54;2.90;;;1.70;;
80211;SDS011;69530;37.974;23.708;2023-05-10T04:10:20;6.20;;;1.70;;
80211;SDS011;69530;37.974;23.708;2023-05-10T04:12:46;4.18;;;1.90;;
80211;SDS011;69530;37.974;23.708;2023-05-10T04:15:11;4.28;;;1.80;;
80211;SDS011;69530;37.974;23.708;2023-05-10T04:17:37;5.00;;;1.98;;
80211;SDS011;69530;37.974;23.708;2023-05-10T04:20:03;6.45;;;2.50;;
80211;SDS011;69530;37.974;23.708;2023-05-10T04:22:29;18.25;;;3.95;;
80211;SDS011;69530;37.974;23.708;2023-05-10T04:24:55;16.48;;;3.25;;
80211;SDS011;69530;37.974;23.708;2023-05-10T04:27:21;11.52;;;2.70;;
80211;SDS011;69530;37.974;23.708;2023-05-10T04:29:46;8.10;;;2.70;;
80211;SDS011;69530;37.974;23.708;2023-05-10T04:32:12;11.27;;;2.63;;
80211;SDS011;69530;37.974;23.708;2023-05-10T04:34:38;11.68;;;2.65;;
80211;SDS011;69530;37.974;23.708;2023-05-10T04:37:04;5.28;;;1.98;;
80211;SDS011;69530;37.974;23.708;2023-05-10T04:39:29;6.35;;;2.60;;
80211;SDS011;69530;37.974;23.708;2023-05-10T04:41:55;10.48;;;2.13;;
80211;SDS011;69530;37.974;23.708;2023-05-10T04:44:20;5.50;;;2.25;;
80211;SDS011;69530;37.974;23.708;2023-05-10T04:46:46;12.98;;;2.55;;
80211;SDS011;69530;37.974;23.708;2023-05-10T04:49:12;9.20;;;2.58;;
80211;SDS011;69530;37.974;23.708;2023-05-10T04:51:38;7.32;;;2.17;;
80211;SDS011;69530;37.974;23.708;2023-05-10T04:54:03;4.97;;;1.83;;
80211;SDS011;69530;37.974;23.708;2023-05-10T04:56:29;7.97;;;3.00;;
80211;SDS011;69530;37.974;23.708;2023-05-10T04:58:55;6.00;;;2.33;;
80211;SDS011;69530;37.974;23.708;2023-05-10T05:01:20;8.30;;;2.40;;
80211;SDS011;69530;37.974;23.708;2023-05-10T05:03:48;5.93;;;2.00;;
80211;SDS011;69530;37.974;23.708;2023-05-10T05:06:13;3.22;;;2.05;;
80211;SDS011;69530;37.974;23.708;2023-05-10T05:08:39;9.30;;;2.33;;
80211;SDS011;69530;37.974;23.708;2023-05-10T05:11:05;7.03;;;2.20;;
80211;SDS011;69530;37.974;23.708;2023-05-10T05:13:30;7.75;;;2.45;;
80211;SDS011;69530;37.974;23.708;2023-05-10T05:15:57;4.93;;;1.98;;
80211;SDS011;69530;37.974;23.708;2023-05-10T05:18:25;8.00;;;2.50;;
80211;SDS011;69530;37.974;23.708;2023-05-10T05:20:50;5.90;;;2.20;;
80211;SDS011;69530;37.974;23.708;2023-05-10T05:23:16;5.00;;;2.30;;
80211;SDS011;69530;37.974;23.708;2023-05-10T05:25:43;5.45;;;1.98;;
80211;SDS011;69530;37.974;23.708;2023-05-10T05:28:08;6.70;;;1.88;;
80211;SDS011;69530;37.974;23.708;2023-05-10T05:30:34;4.47;;;2.25;;
80211;SDS011;69530;37.974;23.708;2023-05-10T05:33:00;5.90;;;2.10;;
80211;SDS011;69530;37.974;23.708;2023-05-10T05:35:25;3.20;;;1.67;;
80211;SDS011;69530;37.974;23.708;2023-05-10T05:37:51;4.68;;;2.00;;
80211;SDS011;69530;37.974;23.708;2023-05-10T05:40:17;7.28;;;2.20;;
80211;SDS011;69530;37.974;23.708;2023-05-10T05:42:42;4.30;;;1.50;;
80211;SDS011;69530;37.974;23.708;2023-05-10T05:45:08;4.40;;;1.90;;
80211;SDS011;69530;37.974;23.708;2023-05-10T05:47:37;4.15;;;1.92;;
80211;SDS011;69530;37.974;23.708;2023-05-10T05:50:04;3.30;;;1.60;;
80211;SDS011;69530;37.974;23.708;2023-05-10T05:52:30;4.63;;;1.40;;
80211;SDS011;69530;37.974;23.708;2023-05-10T05:54:56;3.35;;;1.63;;
80211;SDS011;69530;37.974;23.708;2023-05-10T05:57:21;4.03;;;1.63;;
80211;SDS011;69530;37.974;23.708;2023-05-10T05:59:47;4.35;;;1.90;;
80211;SDS011;69530;37.974;23.708;2023-05-10T06:02:13;3.67;;;1.50;;
80211;SDS011;69530;37.974;23.708;2023-05-10T06:04:39;5.65;;;1.80;;
80211;SDS011;69530;37.974;23.708;2023-05-10T06:07:04;3.33;;;1.70;;
80211;SDS011;69530;37.974;23.708;2023-05-10T06:09:30;3.10;;;1.90;;
80211;SDS011;69530;37.974;23.708;2023-05-10T06:11:56;2.63;;;1.63;;
80211;SDS011;69530;37.974;23.708;2023-05-10T06:14:22;3.58;;;1.90;;
80211;SDS011;69530;37.974;23.708;2023-05-10T06:16:48;3.78;;;1.67;;
80211;SDS011;69530;37.974;23.708;2023-05-10T06:19:13;3.50;;;2.10;;
80211;SDS011;69530;37.974;23.708;2023-05-10T06:21:39;2.25;;;1.55;;
80211;SDS011;69530;37.974;23.708;2023-05-10T06:24:05;4.32;;;1.92;;
80211;SDS011;69530;37.974;23.708;2023-05-10T06:26:31;6.10;;;1.95;;
80211;SDS011;69530;37.974;23.708;2023-05-10T06:28:57;5.20;;;2.03;;
80211;SDS011;69530;37.974;23.708;2023-05-10T06:31:23;4.80;;;2.08;;
80211;SDS011;69530;37.974;23.708;2023-05-10T06:33:49;3.83;;;2.00;;
80211;SDS011;69530;37.974;23.708;2023-05-10T06:36:14;6.50;;;1.77;;
80211;SDS011;69530;37.974;23.708;2023-05-10T06:38:40;7.03;;;2.25;;
80211;SDS011;69530;37.974;23.708;2023-05-10T06:41:06;3.20;;;1.63;;
80211;SDS011;69530;37.974;23.708;2023-05-10T06:43:32;5.22;;;1.95;;
80211;SDS011;69530;37.974;23.708;2023-05-10T06:45:57;4.05;;;1.92;;
80211;SDS011;69530;37.974;23.708;2023-05-10T06:48:23;5.70;;;1.95;;
80211;SDS011;69530;37.974;23.708;2023-05-10T06:50:49;5.20;;;2.42;;
80211;SDS011;69530;37.974;23.708;2023-05-10T06:53:14;4.50;;;1.90;;
80211;SDS011;69530;37.974;23.708;2023-05-10T06:55:40;5.22;;;1.95;;
80211;SDS011;69530;37.974;23.708;2023-05-10T06:58:06;5.38;;;1.52;;
80211;SDS011;69530;37.974;23.708;2023-05-10T07:00:31;4.97;;;2.15;;
80211;SDS011;69530;37.974;23.708;2023-05-10T07:02:57;3.55;;;1.73;;
80211;SDS011;69530;37.974;23.708;2023-05-10T07:05:23;3.80;;;1.70;;
80211;SDS011;69530;37.974;23.708;2023-05-10T07:07:49;2.83;;;1.67;;
80211;SDS011;69530;37.974;23.708;2023-05-10T07:10:15;5.22;;;1.67;;
80211;SDS011;69530;37.974;23.708;2023-05-10T07:12:41;5.25;;;2.13;;
80211;SDS011;69530;37.974;23.708;2023-05-10T07:15:06;3.72;;;1.73;;
80211;SDS011;69530;37.974;23.708;2023-05-10T07:17:33;6.25;;;1.92;;
80211;SDS011;69530;37.974;23.708;2023-05-10T07:19:59;4.63;;;1.98;;
80211;SDS011;69530;37.974;23.708;2023-05-10T07:22:25;3.58;;;1.80;;
80211;SDS011;69530;37.974;23.708;2023-05-10T07:24:51;4.15;;;1.85;;
80211;SDS011;69530;37.974;23.708;2023-05-10T07:27:17;4.70;;;1.90;;
80211;SDS011;69530;37.974;23.708;2023-05-10T07:29:42;2.55;;;1.63;;
80211;SDS011;69530;37.974;23.708;2023-05-10T07:32:08;3.65;;;1.98;;
80211;SDS011;69530;37.974;23.708;2023-05-10T07:34:34;5.05;;;2.08;;
80211;SDS011;69530;37.974;23.708;2023-05-10T07:36:59;6.43;;;2.17;;
80211;SDS011;69530;37.974;23.708;2023-05-10T07:39:28;4.25;;;2.08;;
80211;SDS011;69530;37.974;23.708;2023-05-10T07:41:55;3.08;;;1.65;;
80211;SDS011;69530;37.974;23.708;2023-05-10T07:44:20;2.63;;;1.77;;
80211;SDS011;69530;37.974;23.708;2023-05-10T07:46:46;5.07;;;1.85;;
80211;SDS011;69530;37.974;23.708;2023-05-10T07:49:13;4.28;;;1.85;;
80211;SDS011;69530;37.974;23.708;2023-05-10T07:51:38;5.40;;;1.90;;
80211;SDS011;69530;37.974;23.708;2023-05-10T07:54:05;6.40;;;2.05;;
80211;SDS011;69530;37.974;23.708;2023-05-10T07:56:31;6.32;;;2.25;;
80211;SDS011;69530;37.974;23.708;2023-05-10T07:58:57;5.82;;;2.05;;
80211;SDS011;69530;37.974;23.708;2023-05-10T08:01:24;5.05;;;2.35;;
80211;SDS011;69530;37.974;23.708;2023-05-10T08:03:50;5.10;;;2.10;;
80211;SDS011;69530;37.974;23.708;2023-05-10T08:06:17;4.72;;;2.20;;
80211;SDS011;69530;37.974;23.708;2023-05-10T08:08:43;2.67;;;1.80;;
80211;SDS011;69530;37.974;23.708;2023-05-10T08:11:14;6.13;;;2.70;;
80211;SDS011;69530;37.974;23.708;2023-05-10T08:13:40;5.28;;;2.00;;
80211;SDS011;69530;37.974;23.708;2023-05-10T08:16:06;4.30;;;1.95;;
80211;SDS011;69530;37.974;23.708;2023-05-10T08:18:32;4.32;;;2.13;;
80211;SDS011;69530;37.974;23.708;2023-05-10T08:20:57;5.07;;;2.08;;
80211;SDS011;69530;37.974;23.708;2023-05-10T08:23:23;4.38;;;2.30;;
80211;SDS011;69530;37.974;23.708;2023-05-10T08:25:49;5.85;;;2.30;;
80211;SDS011;69530;37.974;23.708;2023-05-10T08:28:14;5.72;;;2.13;;
80211;SDS011;69530;37.974;23.708;2023-05-10T08:30:40;6.70;;;2.25;;
80211;SDS011;69530;37.974;23.708;2023-05-10T08:33:06;4.93;;;2.13;;
80211;SDS011;69530;37.974;23.708;2023-05-10T08:35:32;5.50;;;2.38;;
80211;SDS011;69530;37.974;23.708;2023-05-10T08:37:59;5.85;;;2.40;;
80211;SDS011;69530;37.974;23.708;2023-05-10T08:40:25;4.22;;;2.00;;
80211;SDS011;69530;37.974;23.708;2023-05-10T08:45:32;5.97;;;2.28;;
80211;SDS011;69530;37.974;23.708;2023-05-10T08:48:01;6.20;;;2.58;;
80211;SDS011;69530;37.974;23.708;2023-05-10T08:50:27;4.38;;;2.10;;
80211;SDS011;69530;37.974;23.708;2023-05-10T08:52:55;3.88;;;2.05;;
80211;SDS011;69530;37.974;23.708;2023-05-10T08:55:25;4.90;;;1.92;;
80211;SDS011;69530;37.974;23.708;2023-05-10T08:57:51;2.80;;;1.75;;
80211;SDS011;69530;37.974;23.708;2023-05-10T09:00:17;11.27;;;2.28;;
80211;SDS011;69530;37.974;23.708;2023-05-10T09:02:43;3.67;;;1.85;;
80211;SDS011;69530;37.974;23.708;2023-05-10T09:05:11;6.57;;;2.33;;
80211;SDS011;69530;37.974;23.708;2023-05-10T09:07:37;3.97;;;1.98;;
80211;SDS011;69530;37.974;23.708;2023-05-10T09:10:04;5.97;;;2.03;;
80211;SDS011;69530;37.974;23.708;2023-05-10T09:12:30;4.07;;;2.10;;
80211;SDS011;69530;37.974;23.708;2023-05-10T09:14:57;3.75;;;1.80;;
80211;SDS011;69530;37.974;23.708;2023-05-10T09:17:24;3.75;;;2.05;;
80211;SDS011;69530;37.974;23.708;2023-05-10T09:20:01;3.45;;;1.77;;
80211;SDS011;69530;37.974;23.708;2023-05-10T09:22:29;5.78;;;2.25;;
80211;SDS011;69530;37.974;23.708;2023-05-10T09:25:12;4.43;;;2.25;;
80211;SDS011;69530;37.974;23.708;2023-05-10T09:27:40;3.03;;;1.80;;
80211;SDS011;69530;37.974;23.708;2023-05-10T09:30:10;3.53;;;1.63;;
80211;SDS011;69530;37.974;23.708;2023-05-10T09:32:41;7.40;;;2.58;;
80211;SDS011;69530;37.974;23.708;2023-05-10T09:35:13;4.03;;;2.40;;
80211;SDS011;69530;37.974;23.708;2023-05-10T09:37:40;4.85;;;1.85;;
80211;SDS011;69530;37.974;23.708;2023-05-10T09:40:08;3.85;;;2.08;;
80211;SDS011;69530;37.974;23.708;2023-05-10T09:42:37;4.93;;;1.95;;
80211;SDS011;69530;37.974;23.708;2023-05-10T09:45:03;3.40;;;1.80;;
80211;SDS011;69530;37.974;23.708;2023-05-10T09:47:39;4.35;;;2.17;;
80211;SDS011;69530;37.974;23.708;2023-05-10T09:50:04;4.47;;;1.85;;
80211;SDS011;69530;37.974;23.708;2023-05-10T09:52:31;7.68;;;2.15;;
80211;SDS011;69530;37.974;23.708;2023-05-10T09:55:22;3.88;;;1.77;;
80211;SDS011;69530;37.974;23.708;2023-05-10T09:58:03;3.05;;;1.73;;
80211;SDS011;69530;37.974;23.708;2023-05-10T10:00:34;3.88;;;1.90;;
80211;SDS011;69530;37.974;23.708;2023-05-10T10:03:04;1.90;;;1.30;;
80211;SDS011;69530;37.974;23.708;2023-05-10T10:05:31;4.38;;;1.80;;
80211;SDS011;69530;37.974;23.708;2023-05-10T10:07:58;5.18;;;1.83;;
80211;SDS011;69530;37.974;23.708;2023-05-10T10:10:25;3.45;;;1.88;;
80211;SDS011;69530;37.974;23.708;2023-05-10T10:12:51;3.38;;;1.38;;
80211;SDS011;69530;37.974;23.708;2023-05-10T10:15:18;6.07;;;1.70;;
80211;SDS011;69530;37.974;23.708;2023-05-10T10:17:45;3.63;;;1.45;;
80211;SDS011;69530;37.974;23.708;2023-05-10T10:20:13;3.50;;;1.67;;
80211;SDS011;69530;37.974;23.708;2023-05-10T10:22:40;2.85;;;1.60;;
80211;SDS011;69530;37.974;23.708;2023-05-10T10:25:05;4.97;;;1.90;;
80211;SDS011;69530;37.974;23.708;2023-05-10T10:28:17;3.78;;;1.95;;
80211;SDS011;69530;37.974;23.708;2023-05-10T10:30:35;3.42;;;1.65;;
80211;SDS011;69530;37.974;23.708;2023-05-10T10:46:58;4.68;;;1.85;;
80211;SDS011;69530;37.974;23.708;2023-05-10T10:57:27;3.65;;;1.50;;
80211;SDS011;69530;37.974;23.708;2023-05-10T11:02:46;3.28;;;1.70;;
80211;SDS011;69530;37.974;23.708;2023-05-10T11:08:07;4.50;;;2.00;;
80211;SDS011;69530;37.974;23.708;2023-05-10T11:13:32;4.85;;;2.03;;
80211;SDS011;69530;37.974;23.708;2023-05-10T11:16:16;5.38;;;1.60;;
80211;SDS011;69530;37.974;23.708;2023-05-10T11:21:33;3.92;;;1.52;;
80211;SDS011;69530;37.974;23.708;2023-05-10T11:24:00;3.25;;;1.88;;
80211;SDS011;69530;37.974;23.708;2023-05-10T11:26:34;4.00;;;1.90;;
80211;SDS011;69530;37.974;23.708;2023-05-10T11:29:00;2.83;;;1.52;;
80211;SDS011;69530;37.974;23.708;2023-05-10T11:31:27;3.33;;;1.70;;
80211;SDS011;69530;37.974;23.708;2023-05-10T11:33:57;3.78;;;1.75;;
80211;SDS011;69530;37.974;23.708;2023-05-10T11:36:28;5.85;;;2.00;;
80211;SDS011;69530;37.974;23.708;2023-05-10T11:38:57;3.03;;;1.73;;
80211;SDS011;69530;37.974;23.708;2023-05-10T11:41:23;4.53;;;2.00;;
80211;SDS011;69530;37.974;23.708;2023-05-10T11:43:50;4.57;;;1.90;;
80211;SDS011;69530;37.974;23.708;2023-05-10T11:46:18;3.25;;;1.80;;
80211;SDS011;69530;37.974;23.708;2023-05-10T11:48:51;4.72;;;1.60;;
80211;SDS011;69530;37.974;23.708;2023-05-10T11:51:21;3.38;;;1.80;;
80211;SDS011;69530;37.974;23.708;2023-05-10T11:53:49;3.72;;;1.50;;
80211;SDS011;69530;37.974;23.708;2023-05-10T11:56:16;5.00;;;1.95;;
80211;SDS011;69530;37.974;23.708;2023-05-10T11:58:42;3.63;;;2.10;;
80211;SDS011;69530;37.974;23.708;2023-05-10T12:01:08;3.10;;;2.15;;
80211;SDS011;69530;37.974;23.708;2023-05-10T12:03:35;3.72;;;2.28;;
80211;SDS011;69530;37.974;23.708;2023-05-10T12:06:01;4.75;;;1.63;;
80211;SDS011;69530;37.974;23.708;2023-05-10T12:08:28;4.38;;;2.20;;
80211;SDS011;69530;37.974;23.708;2023-05-10T12:11:04;4.30;;;1.52;;
80211;SDS011;69530;37.974;23.708;2023-05-10T12:13:31;3.95;;;1.77;;
80211;SDS011;69530;37.974;23.708;2023-05-10T12:15:57;2.85;;;1.77;;
80211;SDS011;69530;37.974;23.708;2023-05-10T12:18:23;4.30;;;1.90;;
80211;SDS011;69530;37.974;23.708;2023-05-10T12:20:52;2.58;;;1.67;;
80211;SDS011;69530;37.974;23.708;2023-05-10T12:23:18;4.15;;;2.05;;
80211;SDS011;69530;37.974;23.708;2023-05-10T12:25:45;2.67;;;1.92;;
80211;SDS011;69530;37.974;23.708;2023-05-10T12:28:11;2.47;;;1.70;;
80211;SDS011;69530;37.974;23.708;2023-05-10T12:30:37;3.75;;;1.85;;
80211;SDS011;69530;37.974;23.708;2023-05-10T12:33:11;4.70;;;1.77;;
80211;SDS011;69530;37.974;23.708;2023-05-10T12:35:51;4.30;;;2.08;;
80211;SDS011;69530;37.974;23.708;2023-05-10T12:41:05;3.50;;;1.60;;
80211;SDS011;69530;37.974;23.708;2023-05-10T12:43:32;4.25;;;1.70;;
80211;SDS011;69530;37.974;23.708;2023-05-10T12:45:58;3.95;;;1.70;;
80211;SDS011;69530;37.974;23.708;2023-05-10T12:48:30;4.57;;;2.08;;
80211;SDS011;69530;37.974;23.708;2023-05-10T12:50:56;4.32;;;1.85;;
80211;SDS011;69530;37.974;23.708;2023-05-10T12:53:22;2.42;;;1.70;;
80211;SDS011;69530;37.974;23.708;2023-05-10T12:55:48;3.05;;;1.70;;
80211;SDS011;69530;37.974;23.708;2023-05-10T12:58:13;3.20;;;1.73;;
80211;SDS011;69530;37.974;23.708;2023-05-10T13:00:39;3.03;;;1.65;;
80211;SDS011;69530;37.974;23.708;2023-05-10T13:03:05;3.20;;;1.75;;
80211;SDS011;69530;37.974;23.708;2023-05-10T13:05:34;2.90;;;1.60;;
80211;SDS011;69530;37.974;23.708;2023-05-10T13:08:00;3.78;;;1.80;;
80211;SDS011;69530;37.974;23.708;2023-05-10T13:10:26;2.25;;;1.58;;
80211;SDS011;69530;37.974;23.708;2023-05-10T13:12:53;4.65;;;1.80;;
80211;SDS011;69530;37.974;23.708;2023-05-10T13:15:19;3.20;;;1.80;;
80211;SDS011;69530;37.974;23.708;2023-05-10T13:17:44;3.05;;;1.55;;
80211;SDS011;69530;37.974;23.708;2023-05-10T13:20:10;5.13;;;2.05;;
80211;SDS011;69530;37.974;23.708;2023-05-10T13:22:36;5.25;;;1.75;;
80211;SDS011;69530;37.974;23.708;2023-05-10T13:25:02;4.38;;;1.90;;
80211;SDS011;69530;37.974;23.708;2023-05-10T13:27:27;2.35;;;1.75;;
80211;SDS011;69530;37.974;23.708;2023-05-10T13:29:53;3.20;;;1.65;;
80211;SDS011;69530;37.974;23.708;2023-05-10T13:32:19;3.90;;;2.13;;
80211;SDS011;69530;37.974;23.708;2023-05-10T13:34:45;2.83;;;1.85;;
80211;SDS011;69530;37.974;23.708;2023-05-10T13:37:11;3.08;;;1.95;;
80211;SDS011;69530;37.974;23.708;2023-05-10T13:39:37;3.00;;;1.52;;
80211;SDS011;69530;37.974;23.708;2023-05-10T13:42:06;2.95;;;1.90;;
80211;SDS011;69530;37.974;23.708;2023-05-10T13:44:32;3.38;;;1.80;;
80211;SDS011;69530;37.974;23.708;2023-05-10T13:46:58;3.95;;;1.90;;
80211;SDS011;69530;37.974;23.708;2023-05-10T13:49:24;3.25;;;1.75;;
80211;SDS011;69530;37.974;23.708;2023-05-10T13:51:50;5.50;;;2.95;;
80211;SDS011;69530;37.974;23.708;2023-05-10T13:54:17;7.32;;;4.63;;
80211;SDS011;69530;37.974;23.708;2023-05-10T13:56:44;13.18;;;8.90;;
80211;SDS011;69530;37.974;23.708;2023-05-10T13:59:12;17.65;;;12.93;;
80211;SDS011;69530;37.974;23.708;2023-05-10T14:01:39;20.67;;;14.50;;
80211;SDS011;69530;37.974;23.708;2023-05-10T14:04:05;24.77;;;15.95;;
80211;SDS011;69530;37.974;23.708;2023-05-10T14:06:33;30.35;;;22.27;;
80211;SDS011;69530;37.974;23.708;2023-05-10T14:08:59;26.45;;;18.85;;
80211;SDS011;69530;37.974;23.708;2023-05-10T14:11:25;33.40;;;24.13;;
80211;SDS011;69530;37.974;23.708;2023-05-10T14:13:50;28.98;;;22.25;;
80211;SDS011;69530;37.974;23.708;2023-05-10T14:16:16;31.08;;;21.77;;
80211;SDS011;69530;37.974;23.708;2023-05-10T14:18:42;29.33;;;21.17;;
80211;SDS011;69530;37.974;23.708;2023-05-10T14:21:08;25.88;;;17.05;;
80211;SDS011;69530;37.974;23.708;2023-05-10T14:23:33;20.05;;;15.60;;
80211;SDS011;69530;37.974;23.708;2023-05-10T14:25:59;20.83;;;15.50;;
80211;SDS011;69530;37.974;23.708;2023-05-10T14:28:25;19.33;;;13.45;;
80211;SDS011;69530;37.974;23.708;2023-05-10T14:30:51;16.92;;;11.10;;
80211;SDS011;69530;37.974;23.708;2023-05-10T14:33:17;13.18;;;8.98;;
80211;SDS011;69530;37.974;23.708;2023-05-10T14:35:42;10.93;;;8.45;;
80211;SDS011;69530;37.974;23.708;2023-05-10T14:38:09;11.88;;;8.48;;
80211;SDS011;69530;37.974;23.708;2023-05-10T14:40:35;13.77;;;9.00;;
80211;SDS011;69530;37.974;23.708;2023-05-10T14:43:01;12.52;;;7.00;;
80211;SDS011;69530;37.974;23.708;2023-05-10T14:45:27;12.10;;;6.72;;
80211;SDS011;69530;37.974;23.708;2023-05-10T14:47:52;8.02;;;5.80;;
80211;SDS011;69530;37.974;23.708;2023-05-10T14:50:18;8.15;;;5.78;;
80211;SDS011;69530;37.974;23.708;2023-05-10T14:52:44;7.40;;;4.45;;
80211;SDS011;69530;37.974;23.708;2023-05-10T14:55:10;7.72;;;4.80;;
80211;SDS011;69530;37.974;23.708;2023-05-10T14:57:36;8.55;;;4.35;;
80211;SDS011;69530;37.974;23.708;2023-05-10T15:00:02;7.68;;;4.22;;
80211;SDS011;69530;37.974;23.708;2023-05-10T15:02:30;7.22;;;3.58;;
80211;SDS011;69530;37.974;23.708;2023-05-10T15:04:56;7.75;;;3.85;;
80211;SDS011;69530;37.974;23.708;2023-05-10T15:07:22;5.75;;;3.35;;
80211;SDS011;69530;37.974;23.708;2023-05-10T15:09:48;6.43;;;3.30;;
80211;SDS011;69530;37.974;23.708;2023-05-10T15:12:15;6.10;;;3.58;;
80211;SDS011;69530;37.974;23.708;2023-05-10T15:14:40;5.95;;;3.45;;
80211;SDS011;69530;37.974;23.708;2023-05-10T15:17:06;5.80;;;3.08;;
80211;SDS011;69530;37.974;23.708;2023-05-10T15:19:32;6.63;;;3.75;;
80211;SDS011;69530;37.974;23.708;2023-05-10T15:21:58;5.68;;;3.35;;
80211;SDS011;69530;37.974;23.708;2023-05-10T15:24:24;7.97;;;3.45;;
80211;SDS011;69530;37.974;23.708;2023-05-10T15:26:50;8.00;;;3.38;;
80211;SDS011;69530;37.974;23.708;2023-05-10T15:29:16;5.80;;;3.45;;
80211;SDS011;69530;37.974;23.708;2023-05-10T15:31:48;5.47;;;3.63;;